sensor_id;sensor_type;location;lat;lon;timestamp;pressure;altitude;pressure_sealevel;temperature;humidity
31585;BME280;18191;51.288;12.390;2023-04-15T00:04:47;49132.16;;;-144.47;98.81
31585;BME280;18191;51.288;12.390;2023-04-15T00:09:37;49052.59;;;-144.47;99.10
31585;BME280;18191;51.288;12.390;2023-04-15T00:14:27;49098.34;;;-144.47;98.51
31585;BME280;18191;51.288;12.390;2023-04-15T00:19:17;49064.53;;;-144.47;99.76
31585;BME280;18191;51.288;12.390;2023-04-15T00:24:08;49072.50;;;-144.47;99.87
31585;BME280;18191;51.288;12.390;2023-04-15T00:28:58;49084.44;;;-144.47;99.42
31585;BME280;18191;51.288;12.390;2023-04-15T00:33:48;49074.47;;;-144.47;100.00
31585;BME280;18191;51.288;12.390;2023-04-15T00:38:38;49092.38;;;-144.47;99.99
31585;BME280;18191;51.288;12.390;2023-04-15T00:43:28;49088.41;;;-144.47;100.00
31585;BME280;18191;51.288;12.390;2023-04-15T00:48:19;49080.44;;;-144.47;99.94
31585;BME280;18191;51.288;12.390;2023-04-15T00:53:09;49052.59;;;-144.47;99.96
31585;BME280;18191;51.288;12.390;2023-04-15T00:57:59;49100.34;;;-144.47;99.93
31585;BME280;18191;51.288;12.390;2023-04-15T01:02:49;49072.50;;;-144.47;99.73
31585;BME280;18191;51.288;12.390;2023-04-15T01:07:39;49084.44;;;-144.47;99.95
31585;BME280;18191;51.288;12.390;2023-04-15T01:12:31;49104.31;;;-144.47;99.42
31585;BME280;18191;51.288;12.390;2023-04-15T01:17:21;49092.38;;;-144.47;99.73
31585;BME280;18191;51.288;12.390;2023-04-15T01:22:12;49064.53;;;-144.47;98.77
31585;BME280;18191;51.288;12.390;2023-04-15T01:27:03;49090.41;;;-144.47;99.08
31585;BME280;18191;51.288;12.390;2023-04-15T01:31:54;49112.28;;;-144.47;98.57
31585;BME280;18191;51.288;12.390;2023-04-15T01:36:45;49096.38;;;-144.47;99.18
31585;BME280;18191;51.288;12.390;2023-04-15T01:41:36;49058.56;;;-144.47;99.35
31585;BME280;18191;51.288;12.390;2023-04-15T01:46:26;49096.38;;;-144.47;99.47
31585;BME280;18191;51.288;12.390;2023-04-15T01:51:16;49052.59;;;-144.47;99.71
31585;BME280;18191;51.288;12.390;2023-04-15T01:56:06;49066.53;;;-144.47;100.00
31585;BME280;18191;51.288;12.390;2023-04-15T02:00:57;49100.34;;;-144.47;100.00
31585;BME280;18191;51.288;12.390;2023-04-15T02:05:47;49104.31;;;-144.47;100.00
31585;BME280;18191;51.288;12.390;2023-04-15T02:10:38;49092.38;;;-144.47;100.00
31585;BME280;18191;51.288;12.390;2023-04-15T02:15:28;49100.34;;;-144.47;100.00
31585;BME280;18191;51.288;12.390;2023-04-15T02:20:19;49100.34;;;-144.47;100.00
31585;BME280;18191;51.288;12.390;2023-04-15T02:25:10;49076.47;;;-144.47;100.00
31585;BME280;18191;51.288;12.390;2023-04-15T02:30:00;49124.22;;;-144.47;100.00
31585;BME280;18191;51.288;12.390;2023-04-15T02:34:51;49036.69;;;-144.47;100.00
31585;BME280;18191;51.288;12.390;2023-04-15T02:39:41;49096.38;;;-144.47;100.00
31585;BME280;18191;51.288;12.390;2023-04-15T02:44:31;49096.38;;;-144.47;100.00
31585;BME280;18191;51.288;12.390;2023-04-15T02:49:23;49092.38;;;-144.47;100.00
31585;BME280;18191;51.288;12.390;2023-04-15T02:54:13;49108.31;;;-144.47;100.00
31585;BME280;18191;51.288;12.390;2023-04-15T02:59:03;49068.50;;;-144.47;100.00
31585;BME280;18191;51.288;12.390;2023-04-15T03:03:53;49080.44;;;-144.47;100.00
31585;BME280;18191;51.288;12.390;2023-04-15T03:08:44;49100.34;;;-144.47;100.00
31585;BME280;18191;51.288;12.390;2023-04-15T03:13:34;49116.25;;;-144.47;100.00
31585;BME280;18191;51.288;12.390;2023-04-15T03:18:24;49096.38;;;-144.47;100.00
31585;BME280;18191;51.288;12.390;2023-04-15T03:23:15;49092.38;;;-144.47;100.00
31585;BME280;18191;51.288;12.390;2023-04-15T03:28:05;49104.31;;;-144.47;100.00
31585;BME280;18191;51.288;12.390;2023-04-15T03:32:55;49100.34;;;-144.47;100.00
31585;BME280;18191;51.288;12.390;2023-04-15T03:37:45;49058.56;;;-144.47;100.00
31585;BME280;18191;51.288;12.390;2023-04-15T03:42:35;49064.53;;;-144.47;100.00
31585;BME280;18191;51.288;12.390;2023-04-15T03:47:26;49114.28;;;-144.47;100.00
31585;BME280;18191;51.288;12.390;2023-04-15T03:52:16;49088.41;;;-144.47;100.00
31585;BME280;18191;51.288;12.390;2023-04-15T03:57:06;49044.66;;;-144.47;100.00
31585;BME280;18191;51.288;12.390;2023-04-15T04:01:56;49072.50;;;-144.47;100.00
31585;BME280;18191;51.288;12.390;2023-04-15T04:06:46;49076.47;;;-144.47;100.00
31585;BME280;18191;51.288;12.390;2023-04-15T04:11:37;49080.44;;;-144.47;100.00
31585;BME280;18191;51.288;12.390;2023-04-15T04:16:27;49080.44;;;-144.47;100.00
31585;BME280;18191;51.288;12.390;2023-04-15T04:21:17;49084.44;;;-144.47;100.00
31585;BME280;18191;51.288;12.390;2023-04-15T04:26:07;49094.38;;;-144.47;100.00
31585;BME280;18191;51.288;12.390;2023-04-15T04:30:58;49076.47;;;-144.47;100.00
31585;BME280;18191;51.288;12.390;2023-04-15T04:35:48;49084.44;;;-144.47;100.00
31585;BME280;18191;51.288;12.390;2023-04-15T04:40:38;49094.38;;;-144.47;100.00
31585;BME280;18191;51.288;12.390;2023-04-15T04:45:28;49108.31;;;-144.47;100.00
31585;BME280;18191;51.288;12.390;2023-04-15T04:50:18;49068.50;;;-144.47;100.00
31585;BME280;18191;51.288;12.390;2023-04-15T04:55:09;49076.47;;;-144.47;100.00
31585;BME280;18191;51.288;12.390;2023-04-15T04:59:59;49108.31;;;-144.47;100.00
31585;BME280;18191;51.288;12.390;2023-04-15T05:04:49;49092.38;;;-144.47;100.00
31585;BME280;18191;51.288;12.390;2023-04-15T05:09:43;49096.38;;;-144.47;100.00
31585;BME280;18191;51.288;12.390;2023-04-15T05:14:33;49124.22;;;-144.47;100.00
31585;BME280;18191;51.288;12.390;2023-04-15T05:19:23;49094.38;;;-144.47;100.00
31585;BME280;18191;51.288;12.390;2023-04-15T05:24:14;49100.34;;;-144.47;100.00
31585;BME280;18191;51.288;12.390;2023-04-15T05:29:05;49064.53;;;-144.47;100.00
31585;BME280;18191;51.288;12.390;2023-04-15T05:33:56;49084.44;;;-144.47;100.00
31585;BME280;18191;51.288;12.390;2023-04-15T05:38:46;49092.38;;;-144.47;100.00
31585;BME280;18191;51.288;12.390;2023-04-15T05:43:36;49100.34;;;-144.47;100.00
31585;BME280;18191;51.288;12.390;2023-04-15T05:48:26;49076.47;;;-144.47;100.00
31585;BME280;18191;51.288;12.390;2023-04-15T05:53:16;49098.34;;;-144.47;100.00
31585;BME280;18191;51.288;12.390;2023-04-15T05:58:07;49128.19;;;-144.47;100.00
31585;BME280;18191;51.288;12.390;2023-04-15T06:02:58;49076.47;;;-144.47;100.00
31585;BME280;18191;51.288;12.390;2023-04-15T06:07:48;49104.31;;;-144.47;100.00
31585;BME280;18191;51.288;12.390;2023-04-15T06:12:39;49072.50;;;-144.47;100.00
31585;BME280;18191;51.288;12.390;2023-04-15T06:17:29;49070.50;;;-144.47;100.00
31585;BME280;18191;51.288;12.390;2023-04-15T06:22:22;49048.63;;;-144.47;100.00
31585;BME280;18191;51.288;12.390;2023-04-15T06:27:13;49104.31;;;-144.47;100.00
31585;BME280;18191;51.288;12.390;2023-04-15T06:32:03;49116.25;;;-144.47;100.00
31585;BME280;18191;51.288;12.390;2023-04-15T06:36:53;49092.38;;;-144.47;100.00
31585;BME280;18191;51.288;12.390;2023-04-15T06:41:43;49106.31;;;-144.47;100.00
31585;BME280;18191;51.288;12.390;2023-04-15T06:46:34;49124.22;;;-144.47;100.00
31585;BME280;18191;51.288;12.390;2023-04-15T06:51:24;49140.13;;;-144.47;100.00
31585;BME280;18191;51.288;12.390;2023-04-15T06:56:14;49106.31;;;-144.47;100.00
31585;BME280;18191;51.288;12.390;2023-04-15T07:01:04;49076.47;;;-144.47;100.00
31585;BME280;18191;51.288;12.390;2023-04-15T07:05:54;49058.56;;;-144.47;100.00
31585;BME280;18191;51.288;12.390;2023-04-15T07:10:45;49104.31;;;-144.47;100.00
31585;BME280;18191;51.288;12.390;2023-04-15T07:15:36;49102.34;;;-144.47;100.00
31585;BME280;18191;51.288;12.390;2023-04-15T07:20:26;49096.38;;;-144.47;100.00
31585;BME280;18191;51.288;12.390;2023-04-15T07:25:16;49104.31;;;-144.47;100.00
31585;BME280;18191;51.288;12.390;2023-04-15T07:30:06;49080.44;;;-144.47;100.00
31585;BME280;18191;51.288;12.390;2023-04-15T07:34:58;49084.44;;;-144.47;100.00
31585;BME280;18191;51.288;12.390;2023-04-15T07:39:48;49092.38;;;-144.47;100.00
31585;BME280;18191;51.288;12.390;2023-04-15T07:44:38;49104.31;;;-144.47;100.00
31585;BME280;18191;51.288;12.390;2023-04-15T07:49:28;49072.50;;;-144.47;100.00
31585;BME280;18191;51.288;12.390;2023-04-15T07:54:19;49126.22;;;-144.47;100.00
31585;BME280;18191;51.288;12.390;2023-04-15T07:59:09;49064.53;;;-144.47;100.00
31585;BME280;18191;51.288;12.390;2023-04-15T08:03:59;49072.50;;;-144.47;100.00
31585;BME280;18191;51.288;12.390;2023-04-15T08:08:49;49148.09;;;-144.47;100.00
31585;BME280;18191;51.288;12.390;2023-04-15T08:13:40;49072.50;;;-144.47;100.00
31585;BME280;18191;51.288;12.390;2023-04-15T08:18:30;49092.38;;;-144.47;100.00
31585;BME280;18191;51.288;12.390;2023-04-15T08:23:20;49130.19;;;-144.47;100.00
31585;BME280;18191;51.288;12.390;2023-04-15T08:28:10;49080.44;;;-144.47;100.00
31585;BME280;18191;51.288;12.390;2023-04-15T08:33:01;49128.19;;;-144.47;100.00
31585;BME280;18191;51.288;12.390;2023-04-15T08:37:51;49094.38;;;-144.47;100.00
31585;BME280;18191;51.288;12.390;2023-04-15T08:42:43;49116.25;;;-144.47;100.00
31585;BME280;18191;51.288;12.390;2023-04-15T08:47:33;49104.31;;;-144.47;100.00
31585;BME280;18191;51.288;12.390;2023-04-15T08:52:25;49074.47;;;-144.47;100.00
31585;BME280;18191;51.288;12.390;2023-04-15T08:57:15;49072.50;;;-144.47;100.00
31585;BME280;18191;51.288;12.390;2023-04-15T09:02:06;49128.19;;;-144.47;100.00
31585;BME280;18191;51.288;12.390;2023-04-15T09:06:56;49096.38;;;-144.47;100.00
31585;BME280;18191;51.288;12.390;2023-04-15T09:11:47;49090.41;;;-144.47;100.00
31585;BME280;18191;51.288;12.390;2023-04-15T09:21:48;49108.31;;;-144.47;100.00
31585;BME280;18191;51.288;12.390;2023-04-15T09:26:40;49108.31;;;-144.47;100.00
31585;BME280;18191;51.288;12.390;2023-04-15T09:31:30;49124.22;;;-144.47;99.62
31585;BME280;18191;51.288;12.390;2023-04-15T09:36:20;49092.38;;;-144.47;98.80
31585;BME280;18191;51.288;12.390;2023-04-15T09:41:15;49124.22;;;-144.47;100.00
31585;BME280;18191;51.288;12.390;2023-04-15T09:46:07;49060.56;;;-144.47;100.00
31585;BME280;18191;51.288;12.390;2023-04-15T09:50:57;49100.34;;;-144.47;100.00
31585;BME280;18191;51.288;12.390;2023-04-15T09:55:49;49088.41;;;-144.47;100.00
31585;BME280;18191;51.288;12.390;2023-04-15T10:00:40;49134.16;;;-144.47;100.00
31585;BME280;18191;51.288;12.390;2023-04-15T10:05:30;49140.13;;;-144.47;100.00
31585;BME280;18191;51.288;12.390;2023-04-15T10:10:20;49128.19;;;-144.47;100.00
31585;BME280;18191;51.288;12.390;2023-04-15T10:15:14;49120.25;;;-144.47;100.00
31585;BME280;18191;51.288;12.390;2023-04-15T10:20:06;49072.50;;;-144.47;98.15
31585;BME280;18191;51.288;12.390;2023-04-15T10:24:56;49116.25;;;-144.47;99.32
31585;BME280;18191;51.288;12.390;2023-04-15T10:29:48;49090.41;;;-144.47;99.05
31585;BME280;18191;51.288;12.390;2023-04-15T10:34:38;49140.13;;;-144.47;99.48
31585;BME280;18191;51.288;12.390;2023-04-15T10:44:22;49072.50;;;-144.47;99.05
31585;BME280;18191;51.288;12.390;2023-04-15T10:49:14;49136.16;;;-144.47;100.00
31585;BME280;18191;51.288;12.390;2023-04-15T10:54:04;49088.41;;;-144.47;98.77
31585;BME280;18191;51.288;12.390;2023-04-15T10:58:58;49064.53;;;-144.47;97.74
31585;BME280;18191;51.288;12.390;2023-04-15T11:03:48;49156.03;;;-144.47;97.53
31585;BME280;18191;51.288;12.390;2023-04-15T11:08:53;49112.28;;;-144.47;96.66
31585;BME280;18191;51.288;12.390;2023-04-15T11:13:50;49104.31;;;-144.47;98.15
31585;BME280;18191;51.288;12.390;2023-04-15T11:18:41;49088.41;;;-144.47;97.60
31585;BME280;18191;51.288;12.390;2023-04-15T11:23:32;49140.13;;;-144.47;97.52
31585;BME280;18191;51.288;12.390;2023-04-15T11:28:30;49112.28;;;-144.47;99.43
31585;BME280;18191;51.288;12.390;2023-04-15T11:33:20;49102.34;;;-144.47;99.88
31585;BME280;18191;51.288;12.390;2023-04-15T11:38:11;49118.25;;;-144.47;98.96
31585;BME280;18191;51.288;12.390;2023-04-15T11:43:06;49132.16;;;-144.47;99.76
31585;BME280;18191;51.288;12.390;2023-04-15T11:53:00;49132.16;;;-144.47;100.00
31585;BME280;18191;51.288;12.390;2023-04-15T11:58:10;49058.56;;;-144.47;98.76
31585;BME280;18191;51.288;12.390;2023-04-15T12:03:10;49100.34;;;-144.47;99.79
31585;BME280;18191;51.288;12.390;2023-04-15T12:08:01;49108.31;;;-144.47;98.49
31585;BME280;18191;51.288;12.390;2023-04-15T12:12:51;49090.41;;;-144.47;97.98
31585;BME280;18191;51.288;12.390;2023-04-15T12:17:42;49128.19;;;-144.47;97.19
31585;BME280;18191;51.288;12.390;2023-04-15T12:22:32;49148.09;;;-144.47;96.08
31585;BME280;18191;51.288;12.390;2023-04-15T12:27:26;49072.50;;;-144.47;98.71
31585;BME280;18191;51.288;12.390;2023-04-15T12:32:17;49138.16;;;-144.47;97.95
31585;BME280;18191;51.288;12.390;2023-04-15T12:37:10;49092.38;;;-144.47;96.81
31585;BME280;18191;51.288;12.390;2023-04-15T12:42:02;49106.31;;;-144.47;95.72
31585;BME280;18191;51.288;12.390;2023-04-15T12:46:53;49076.47;;;-144.47;96.60
31585;BME280;18191;51.288;12.390;2023-04-15T12:51:43;49080.44;;;-144.47;93.45
31585;BME280;18191;51.288;12.390;2023-04-15T12:56:33;49084.44;;;-144.47;93.94
31585;BME280;18191;51.288;12.390;2023-04-15T13:01:24;49100.34;;;-144.47;94.49
31585;BME280;18191;51.288;12.390;2023-04-15T13:06:14;49112.28;;;-144.47;95.05
31585;BME280;18191;51.288;12.390;2023-04-15T13:11:05;49072.50;;;-144.47;95.45
31585;BME280;18191;51.288;12.390;2023-04-15T13:15:55;49134.16;;;-144.47;92.12
31585;BME280;18191;51.288;12.390;2023-04-15T13:20:45;49088.41;;;-144.47;93.46
31585;BME280;18191;51.288;12.390;2023-04-15T13:25:36;49116.25;;;-144.47;91.83
31585;BME280;18191;51.288;12.390;2023-04-15T13:30:28;49116.25;;;-144.47;91.11
31585;BME280;18191;51.288;12.390;2023-04-15T13:35:18;49114.28;;;-144.47;90.86
31585;BME280;18191;51.288;12.390;2023-04-15T13:40:09;49116.25;;;-144.47;89.49
31585;BME280;18191;51.288;12.390;2023-04-15T13:44:59;49088.41;;;-144.47;91.13
31585;BME280;18191;51.288;12.390;2023-04-15T13:49:49;49120.25;;;-144.47;90.79
31585;BME280;18191;51.288;12.390;2023-04-15T13:54:40;49100.34;;;-144.47;91.54
31585;BME280;18191;51.288;12.390;2023-04-15T13:59:33;49092.38;;;-144.47;93.15
31585;BME280;18191;51.288;12.390;2023-04-15T14:04:24;49144.09;;;-144.47;93.68
31585;BME280;18191;51.288;12.390;2023-04-15T14:09:14;49076.47;;;-144.47;94.05
31585;BME280;18191;51.288;12.390;2023-04-15T14:14:04;49094.38;;;-144.47;93.33
31585;BME280;18191;51.288;12.390;2023-04-15T14:18:54;49116.25;;;-144.47;93.74
31585;BME280;18191;51.288;12.390;2023-04-15T14:23:45;49088.41;;;-144.47;94.38
31585;BME280;18191;51.288;12.390;2023-04-15T14:28:35;49124.22;;;-144.47;94.30
31585;BME280;18191;51.288;12.390;2023-04-15T14:33:27;49146.09;;;-144.47;95.17
31585;BME280;18191;51.288;12.390;2023-04-15T14:38:17;49096.38;;;-144.47;95.55
31585;BME280;18191;51.288;12.390;2023-04-15T14:43:07;49076.47;;;-144.47;95.73
31585;BME280;18191;51.288;12.390;2023-04-15T14:47:59;49076.47;;;-144.47;95.73
31585;BME280;18191;51.288;12.390;2023-04-15T14:52:49;49132.16;;;-144.47;94.81
31585;BME280;18191;51.288;12.390;2023-04-15T14:57:40;49148.09;;;-144.47;95.05
31585;BME280;18191;51.288;12.390;2023-04-15T15:02:31;49092.38;;;-144.47;93.50
31585;BME280;18191;51.288;12.390;2023-04-15T15:07:22;49140.13;;;-144.47;93.45
31585;BME280;18191;51.288;12.390;2023-04-15T15:12:12;49088.41;;;-144.47;90.55
31585;BME280;18191;51.288;12.390;2023-04-15T15:17:02;49120.25;;;-144.47;90.88
31585;BME280;18191;51.288;12.390;2023-04-15T15:21:52;49116.25;;;-144.47;91.25
31585;BME280;18191;51.288;12.390;2023-04-15T15:26:42;49084.44;;;-144.47;90.93
31585;BME280;18191;51.288;12.390;2023-04-15T15:31:33;49104.31;;;-144.47;90.38
31585;BME280;18191;51.288;12.390;2023-04-15T15:36:23;49112.28;;;-144.47;91.27
31585;BME280;18191;51.288;12.390;2023-04-15T15:41:14;49100.34;;;-144.47;91.33
31585;BME280;18191;51.288;12.390;2023-04-15T15:46:04;49112.28;;;-144.47;93.00
31585;BME280;18191;51.288;12.390;2023-04-15T15:50:56;49167.97;;;-144.47;92.74
31585;BME280;18191;51.288;12.390;2023-04-15T15:55:46;49112.28;;;-144.47;92.67
31585;BME280;18191;51.288;12.390;2023-04-15T16:00:37;49106.31;;;-144.47;92.29
31585;BME280;18191;51.288;12.390;2023-04-15T16:05:27;49156.03;;;-144.47;93.49
31585;BME280;18191;51.288;12.390;2023-04-15T16:10:17;49104.31;;;-144.47;92.91
31585;BME280;18191;51.288;12.390;2023-04-15T16:15:08;49106.31;;;-144.47;92.57
31585;BME280;18191;51.288;12.390;2023-04-15T16:19:58;49144.09;;;-144.47;93.71
31585;BME280;18191;51.288;12.390;2023-04-15T16:24:49;49112.28;;;-144.47;93.53
31585;BME280;18191;51.288;12.390;2023-04-15T16:29:39;49132.16;;;-144.47;92.55
31585;BME280;18191;51.288;12.390;2023-04-15T16:34:30;49102.34;;;-144.47;93.54
31585;BME280;18191;51.288;12.390;2023-04-15T16:39:21;49106.31;;;-144.47;92.37
31585;BME280;18191;51.288;12.390;2023-04-15T16:44:13;49156.03;;;-144.47;93.94
31585;BME280;18191;51.288;12.390;2023-04-15T16:49:04;49124.22;;;-144.47;95.15
31585;BME280;18191;51.288;12.390;2023-04-15T16:53:54;49116.25;;;-144.47;96.46
31585;BME280;18191;51.288;12.390;2023-04-15T16:58:44;49124.22;;;-144.47;95.92
31585;BME280;18191;51.288;12.390;2023-04-15T17:03:34;49080.44;;;-144.47;95.19
31585;BME280;18191;51.288;12.390;2023-04-15T17:08:25;49104.31;;;-144.47;94.61
31585;BME280;18191;51.288;12.390;2023-04-15T17:13:15;49116.25;;;-144.47;95.14
31585;BME280;18191;51.288;12.390;2023-04-15T17:18:06;49136.16;;;-144.47;94.87
31585;BME280;18191;51.288;12.390;2023-04-15T17:22:57;49096.38;;;-144.47;95.36
31585;BME280;18191;51.288;12.390;2023-04-15T17:27:48;49156.03;;;-144.47;96.09
31585;BME280;18191;51.288;12.390;2023-04-15T17:32:38;49104.31;;;-144.47;96.01
31585;BME280;18191;51.288;12.390;2023-04-15T17:37:28;49150.06;;;-144.47;95.64
31585;BME280;18191;51.288;12.390;2023-04-15T17:42:20;49116.25;;;-144.47;96.31
31585;BME280;18191;51.288;12.390;2023-04-15T17:47:11;49140.13;;;-144.47;95.05
31585;BME280;18191;51.288;12.390;2023-04-15T17:52:02;49140.13;;;-144.47;96.28
31585;BME280;18191;51.288;12.390;2023-04-15T17:56:52;49120.25;;;-144.47;97.07
31585;BME280;18191;51.288;12.390;2023-04-15T18:01:43;49122.22;;;-144.47;97.81
31585;BME280;18191;51.288;12.390;2023-04-15T18:06:36;49120.25;;;-144.47;98.43
31585;BME280;18191;51.288;12.390;2023-04-15T18:11:27;49160.03;;;-144.47;98.54
31585;BME280;18191;51.288;12.390;2023-04-15T18:16:17;49124.22;;;-144.47;98.77
31585;BME280;18191;51.288;12.390;2023-04-15T18:21:08;49140.13;;;-144.47;98.69
31585;BME280;18191;51.288;12.390;2023-04-15T18:26:02;49160.03;;;-144.47;98.70
31585;BME280;18191;51.288;12.390;2023-04-15T18:30:52;49148.09;;;-144.47;99.38
31585;BME280;18191;51.288;12.390;2023-04-15T18:35:42;49066.53;;;-144.47;100.00
31585;BME280;18191;51.288;12.390;2023-04-15T18:40:32;49124.22;;;-144.47;100.00
31585;BME280;18191;51.288;12.390;2023-04-15T18:45:22;49128.19;;;-144.47;99.90
31585;BME280;18191;51.288;12.390;2023-04-15T18:50:13;49148.09;;;-144.47;99.71
31585;BME280;18191;51.288;12.390;2023-04-15T18:55:03;49136.16;;;-144.47;100.00
31585;BME280;18191;51.288;12.390;2023-04-15T18:59:53;49166.00;;;-144.47;100.00
31585;BME280;18191;51.288;12.390;2023-04-15T19:04:43;49144.09;;;-144.47;100.00
31585;BME280;18191;51.288;12.390;2023-04-15T19:09:34;49134.16;;;-144.47;100.00
31585;BME280;18191;51.288;12.390;2023-04-15T19:14:24;49108.31;;;-144.47;100.00
31585;BME280;18191;51.288;12.390;2023-04-15T19:19:14;49171.97;;;-144.47;100.00
31585;BME280;18191;51.288;12.390;2023-04-15T19:24:05;49164.00;;;-144.47;100.00
31585;BME280;18191;51.288;12.390;2023-04-15T19:28:55;49166.00;;;-144.47;100.00
31585;BME280;18191;51.288;12.390;2023-04-15T19:33:47;49167.97;;;-144.47;100.00
31585;BME280;18191;51.288;12.390;2023-04-15T19:38:37;49124.22;;;-144.47;100.00
31585;BME280;18191;51.288;12.390;2023-04-15T19:43:28;49160.03;;;-144.47;100.00
31585;BME280;18191;51.288;12.390;2023-04-15T19:48:19;49152.06;;;-144.47;100.00
31585;BME280;18191;51.288;12.390;2023-04-15T19:53:09;49187.88;;;-144.47;100.00
31585;BME280;18191;51.288;12.390;2023-04-15T19:58:02;49171.97;;;-144.47;100.00
31585;BME280;18191;51.288;12.390;2023-04-15T20:02:53;49164.00;;;-144.47;100.00
31585;BME280;18191;51.288;12.390;2023-04-15T20:07:44;49118.25;;;-144.47;100.00
31585;BME280;18191;51.288;12.390;2023-04-15T20:12:40;49106.31;;;-144.47;100.00
31585;BME280;18191;51.288;12.390;2023-04-15T20:17:34;49171.97;;;-144.47;100.00
31585;BME280;18191;51.288;12.390;2023-04-15T20:22:25;49171.97;;;-144.47;100.00
31585;BME280;18191;51.288;12.390;2023-04-15T20:27:15;49128.19;;;-144.47;100.00
31585;BME280;18191;51.288;12.390;2023-04-15T20:32:05;49148.09;;;-144.47;100.00
31585;BME280;18191;51.288;12.390;2023-04-15T20:36:59;49146.09;;;-144.47;100.00
31585;BME280;18191;51.288;12.390;2023-04-15T20:41:52;49114.28;;;-144.47;100.00
31585;BME280;18191;51.288;12.390;2023-04-15T20:46:42;49120.25;;;-144.47;100.00
31585;BME280;18191;51.288;12.390;2023-04-15T20:51:32;49169.97;;;-144.47;100.00
31585;BME280;18191;51.288;12.390;2023-04-15T20:56:26;49120.25;;;-144.47;100.00
31585;BME280;18191;51.288;12.390;2023-04-15T21:01:17;49124.22;;;-144.47;100.00
31585;BME280;18191;51.288;12.390;2023-04-15T21:06:07;49096.38;;;-144.47;100.00
31585;BME280;18191;51.288;12.390;2023-04-15T21:10:59;49136.16;;;-144.47;100.00
31585;BME280;18191;51.288;12.390;2023-04-15T21:15:49;49156.03;;;-144.47;100.00
31585;BME280;18191;51.288;12.390;2023-04-15T21:20:42;49136.16;;;-144.47;100.00
31585;BME280;18191;51.288;12.390;2023-04-15T21:25:32;49152.06;;;-144.47;100.00
31585;BME280;18191;51.288;12.390;2023-04-15T21:30:23;49140.13;;;-144.47;100.00
31585;BME280;18191;51.288;12.390;2023-04-15T21:35:13;49171.97;;;-144.47;100.00
31585;BME280;18191;51.288;12.390;2023-04-15T21:40:07;49160.03;;;-144.47;100.00
31585;BME280;18191;51.288;12.390;2023-04-15T21:44:59;49128.19;;;-144.47;100.00
31585;BME280;18191;51.288;12.390;2023-04-15T21:49:49;49126.22;;;-144.47;100.00
31585;BME280;18191;51.288;12.390;2023-04-15T21:54:39;49136.16;;;-144.47;100.00
31585;BME280;18191;51.288;12.390;2023-04-15T21:59:31;49175.94;;;-144.47;100.00
31585;BME280;18191;51.288;12.390;2023-04-15T22:04:21;49136.16;;;-144.47;100.00
31585;BME280;18191;51.288;12.390;2023-04-15T22:09:12;49148.09;;;-144.47;100.00
31585;BME280;18191;51.288;12.390;2023-04-15T22:14:03;49158.03;;;-144.47;100.00
31585;BME280;18191;51.288;12.390;2023-04-15T22:18:54;49124.22;;;-144.47;100.00
31585;BME280;18191;51.288;12.390;2023-04-15T22:23:45;49124.22;;;-144.47;100.00
31585;BME280;18191;51.288;12.390;2023-04-15T22:28:36;49138.16;;;-144.47;100.00
31585;BME280;18191;51.288;12.390;2023-04-15T22:33:26;49171.97;;;-144.47;100.00
31585;BME280;18191;51.288;12.390;2023-04-15T22:38:16;49116.25;;;-144.47;100.00
31585;BME280;18191;51.288;12.390;2023-04-15T22:43:06;49128.19;;;-144.47;100.00
31585;BME280;18191;51.288;12.390;2023-04-15T22:47:57;49124.22;;;-144.47;100.00
31585;BME280;18191;51.288;12.390;2023-04-15T22:52:47;49152.06;;;-144.47;100.00
31585;BME280;18191;51.288;12.390;2023-04-15T22:57:37;49175.94;;;-144.47;100.00
31585;BME280;18191;51.288;12.390;2023-04-15T23:02:27;49183.91;;;-144.47;100.00
31585;BME280;18191;51.288;12.390;2023-04-15T23:07:17;49132.16;;;-144.47;100.00
31585;BME280;18191;51.288;12.390;2023-04-15T23:12:08;49160.03;;;-144.47;100.00
31585;BME280;18191;51.288;12.390;2023-04-15T23:16:58;49116.25;;;-144.47;100.00
31585;BME280;18191;51.288;12.390;2023-04-15T23:21:48;49126.22;;;-144.47;100.00
31585;BME280;18191;51.288;12.390;2023-04-15T23:26:38;49171.97;;;-144.47;100.00
31585;BME280;18191;51.288;12.390;2023-04-15T23:31:29;49136.16;;;-144.47;100.00
31585;BME280;18191;51.288;12.390;2023-04-15T23:36:19;49124.22;;;-144.47;100.00
31585;BME280;18191;51.288;12.390;2023-04-15T23:41:10;49175.94;;;-144.47;100.00
31585;BME280;18191;51.288;12.390;2023-04-15T23:46:00;49152.06;;;-144.47;100.00
31585;BME280;18191;51.288;12.390;2023-04-15T23:50:51;49120.25;;;-144.47;100.00
31585;BME280;18191;51.288;12.390;2023-04-15T23:55:41;49148.09;;;-144.47;100.00
